createdAt,value
2018-09-15T00:00:55.492Z,61.36
2018-09-15T00:03:24.306Z,61.24
2018-09-15T00:05:52.461Z,61.54
2018-09-15T00:08:20.504Z,61.79
2018-09-15T00:10:49.036Z,61.63
2018-09-15T00:13:17.598Z,61.98
2018-09-15T00:15:45.927Z,61.95
2018-09-15T00:18:15.579Z,61.95
2018-09-15T00:20:43.720Z,61.74
2018-09-15T00:23:12.301Z,62.68
2018-09-15T00:25:41.235Z,62.67
2018-09-15T00:28:10.142Z,62.14
2018-09-15T00:30:38.344Z,62.29
2018-09-15T00:33:06.549Z,62.37
2018-09-15T00:35:35.612Z,62.20
2018-09-15T00:38:04.730Z,63.08
2018-09-15T00:40:32.755Z,62.71
2018-09-15T00:43:00.819Z,63.55
2018-09-15T00:45:29.064Z,63.64
2018-09-15T00:47:57.349Z,63.17
2018-09-15T00:50:25.405Z,63.61
2018-09-15T00:52:53.465Z,63.71
2018-09-15T00:55:21.518Z,64.15
2018-09-15T00:57:49.568Z,63.67
2018-09-15T01:00:18.751Z,64.27
2018-09-15T01:02:46.929Z,64.06
2018-09-15T01:05:15.284Z,64.10
2018-09-15T01:07:43.336Z,64.20
2018-09-15T01:10:11.438Z,63.94
2018-09-15T01:12:39.480Z,64.48
2018-09-15T01:15:07.532Z,63.77
2018-09-15T01:17:35.590Z,64.03
2018-09-15T01:20:04.686Z,64.22
2018-09-15T01:22:32.692Z,63.83
2018-09-15T01:25:00.789Z,63.90
2018-09-15T01:27:28.835Z,64.08
2018-09-15T01:29:56.894Z,64.20
2018-09-15T01:32:26.489Z,64.24
2018-09-15T01:34:54.566Z,64.10
2018-09-15T01:37:22.617Z,64.83
2018-09-15T01:39:50.665Z,64.85
2018-09-15T01:42:18.721Z,64.28
2018-09-15T01:44:46.884Z,64.67
2018-09-15T01:47:14.956Z,65.13
2018-09-15T01:49:43.013Z,65.83
2018-09-15T01:52:11.060Z,66.61
2018-09-15T01:54:39.200Z,66.24
2018-09-15T01:57:07.579Z,67.06
2018-09-15T01:59:35.648Z,66.55
2018-09-15T02:02:03.740Z,66.85
2018-09-15T02:04:31.770Z,67.36
2018-09-15T02:06:59.859Z,66.85
2018-09-15T02:09:27.949Z,66.44
2018-09-15T02:11:56.007Z,67.39
2018-09-15T02:14:24.059Z,67.15
2018-09-15T02:16:52.148Z,66.94
2018-09-15T02:19:20.795Z,66.91
2018-09-15T02:21:48.836Z,67.17
2018-09-15T02:24:16.905Z,66.89
2018-09-15T02:26:45.031Z,66.88
2018-09-15T02:29:13.092Z,67.02
2018-09-15T02:31:41.228Z,67.17
2018-09-15T02:34:09.302Z,67.47
2018-09-15T02:36:37.377Z,67.07
2018-09-15T02:39:07.330Z,66.71
2018-09-15T02:41:35.391Z,67.70
2018-09-15T02:44:03.556Z,67.18
2018-09-15T02:46:31.632Z,67.38
2018-09-15T02:48:59.779Z,67.57
2018-09-15T02:51:27.863Z,67.71
2018-09-15T02:53:55.900Z,68.26
2018-09-15T02:56:23.956Z,67.49
2018-09-15T02:58:52.060Z,67.93
2018-09-15T03:01:20.168Z,67.71
2018-09-15T03:03:48.425Z,68.13
2018-09-15T03:06:16.488Z,68.45
2018-09-15T03:08:44.541Z,68.24
2018-09-15T03:11:13.059Z,68.36
2018-09-15T03:13:41.148Z,68.60
2018-09-15T03:16:09.208Z,68.75
2018-09-15T03:18:37.574Z,68.19
2018-09-15T03:21:05.875Z,68.52
2018-09-15T03:23:33.925Z,68.47
2018-09-15T03:26:02.390Z,68.41
2018-09-15T03:28:30.495Z,68.68
2018-09-15T03:30:58.543Z,68.86
2018-09-15T03:33:26.615Z,68.86
2018-09-15T03:35:54.670Z,68.85
2018-09-15T03:38:22.728Z,69.20
2018-09-15T03:40:50.792Z,69.16
2018-09-15T03:43:18.835Z,68.86
2018-09-15T03:45:46.893Z,68.68
2018-09-15T03:48:14.950Z,69.26
2018-09-15T03:50:43.410Z,69.27
2018-09-15T03:53:11.469Z,69.83
2018-09-15T03:55:39.518Z,69.06
2018-09-15T03:58:07.594Z,69.49
2018-09-15T04:00:35.664Z,69.41
2018-09-15T04:03:04.753Z,69.96
2018-09-15T04:05:32.811Z,69.91
2018-09-15T04:08:00.860Z,70.08
2018-09-15T04:10:28.902Z,69.61
2018-09-15T04:12:57.208Z,69.49
2018-09-15T04:15:25.279Z,69.73
2018-09-15T04:17:53.327Z,70.38
2018-09-15T04:20:21.717Z,70.18
2018-09-15T04:22:49.769Z,69.73
2018-09-15T04:25:17.823Z,69.74
2018-09-15T04:27:45.946Z,69.79
2018-09-15T04:30:14.013Z,69.78
2018-09-15T04:32:45.236Z,70.24
2018-09-15T04:35:13.297Z,70.39
2018-09-15T04:40:20.966Z,70.23
2018-09-15T04:42:49.760Z,70.38
2018-09-15T04:45:17.976Z,70.46
2018-09-15T04:47:46.040Z,69.86
2018-09-15T04:50:14.148Z,70.52
2018-09-15T04:52:42.324Z,70.24
2018-09-15T04:55:10.329Z,69.79
2018-09-15T04:57:38.545Z,69.65
2018-09-15T05:00:06.679Z,70.08
2018-09-15T05:02:34.728Z,70.04
2018-09-15T05:05:02.764Z,70.40
2018-09-15T05:07:30.796Z,70.46
2018-09-15T05:09:58.888Z,70.19
2018-09-15T05:12:27.004Z,69.86
2018-09-15T05:14:55.037Z,69.56
2018-09-15T05:17:23.428Z,70.27
2018-09-15T05:19:51.481Z,70.12
2018-09-15T05:22:19.590Z,70.04
2018-09-15T05:24:47.597Z,70.06
2018-09-15T05:27:15.651Z,70.55
2018-09-15T05:29:43.948Z,70.07
2018-09-15T05:32:12.238Z,69.96
2018-09-15T05:34:40.267Z,70.13
2018-09-15T05:37:15.145Z,70.26
2018-09-15T05:39:43.247Z,70.60
2018-09-15T05:42:11.237Z,70.42
2018-09-15T05:44:39.288Z,70.25
2018-09-15T05:47:07.341Z,70.54
2018-09-15T05:49:35.441Z,70.36
2018-09-15T05:52:03.469Z,70.53
2018-09-15T05:54:31.575Z,70.60
2018-09-15T05:56:59.642Z,70.79
2018-09-15T05:59:27.681Z,70.82
2018-09-15T06:01:55.763Z,69.96
2018-09-15T06:04:23.766Z,70.26
2018-09-15T06:06:51.957Z,70.38
2018-09-15T06:09:19.975Z,70.27
2018-09-15T06:11:48.037Z,70.09
2018-09-15T06:14:16.080Z,70.26
2018-09-15T06:16:44.226Z,69.56
2018-09-15T06:19:12.569Z,69.61
2018-09-15T06:21:40.659Z,69.46
2018-09-15T06:24:08.728Z,69.37
2018-09-15T06:26:37.373Z,69.56
2018-09-15T06:29:05.405Z,70.02
2018-09-15T06:31:33.450Z,69.63
2018-09-15T06:34:01.506Z,70.31
2018-09-15T06:36:29.639Z,69.99
2018-09-15T06:38:57.682Z,69.56
2018-09-15T06:41:25.819Z,69.72
2018-09-15T06:43:54.164Z,69.43
2018-09-15T06:46:22.213Z,69.78
2018-09-15T06:48:50.245Z,69.77
2018-09-15T06:51:18.464Z,69.16
2018-09-15T06:53:46.822Z,69.61
2018-09-15T06:56:14.947Z,69.36
2018-09-15T06:58:43.028Z,69.97
2018-09-15T07:01:11.074Z,70.27
2018-09-15T07:03:39.108Z,69.77
2018-09-15T07:06:07.157Z,69.77
2018-09-15T07:08:35.489Z,70.04
2018-09-15T07:11:03.511Z,70.55
2018-09-15T07:13:31.539Z,70.01
2018-09-15T07:15:59.576Z,69.95
2018-09-15T07:18:27.612Z,70.57
2018-09-15T07:20:55.650Z,69.96
2018-09-15T07:23:23.692Z,70.25
2018-09-15T07:25:51.779Z,69.49
2018-09-15T07:28:20.128Z,69.74
2018-09-15T07:30:48.168Z,70.12
2018-09-15T07:33:16.233Z,70.13
2018-09-15T07:35:44.272Z,70.33
2018-09-15T07:38:12.305Z,69.77
2018-09-15T07:40:40.344Z,69.88
2018-09-15T07:43:08.400Z,70.25
2018-09-15T07:45:36.436Z,69.59
2018-09-15T07:48:04.796Z,69.32
2018-09-15T07:50:43.852Z,69.03
2018-09-15T07:53:12.147Z,69.63
2018-09-15T07:55:40.195Z,69.04
2018-09-15T07:58:08.249Z,68.57
2018-09-15T08:00:36.284Z,68.14
2018-09-15T08:03:04.899Z,68.93
2018-09-15T08:05:32.944Z,67.97
2018-09-15T08:08:01.012Z,68.10
2018-09-15T08:10:29.060Z,67.39
2018-09-15T08:12:57.092Z,68.13
2018-09-15T08:15:31.845Z,67.20
2018-09-15T08:17:59.901Z,67.34
2018-09-15T08:20:27.959Z,67.46
2018-09-15T08:22:56.001Z,67.10
2018-09-15T08:25:24.035Z,66.36
2018-09-15T08:27:52.103Z,67.38
2018-09-15T08:30:20.116Z,66.64
2018-09-15T08:32:48.415Z,66.27
2018-09-15T08:35:16.461Z,66.89
2018-09-15T08:37:46.210Z,66.98
2018-09-15T08:40:14.697Z,67.18
2018-09-15T08:42:42.830Z,66.90
2018-09-15T08:45:10.856Z,66.70
2018-09-15T08:47:38.905Z,66.83
2018-09-15T08:50:07.034Z,66.07
2018-09-15T08:52:35.220Z,66.39
2018-09-15T08:55:03.450Z,66.10
2018-09-15T08:57:31.820Z,66.06
2018-09-15T08:59:59.951Z,65.58
2018-09-15T09:02:27.989Z,64.64
2018-09-15T09:04:56.235Z,64.54
2018-09-15T09:07:24.267Z,64.24
2018-09-15T09:09:52.331Z,64.07
2018-09-15T09:12:20.598Z,63.82
2018-09-15T09:14:48.665Z,63.14
2018-09-15T09:17:16.700Z,62.28
2018-09-15T09:19:44.832Z,62.54
2018-09-15T09:22:12.851Z,61.89
2018-09-15T09:24:41.282Z,61.23
2018-09-15T09:27:09.648Z,60.93
2018-09-15T09:29:37.684Z,60.55
2018-09-15T09:32:05.720Z,60.34
2018-09-15T09:34:33.932Z,59.63
2018-09-15T09:37:02.183Z,59.77
2018-09-15T09:39:30.256Z,58.64
2018-09-15T09:41:58.504Z,58.97
2018-09-15T09:44:26.553Z,58.08
2018-09-15T09:46:54.652Z,58.54
2018-09-15T09:49:22.729Z,59.24
2018-09-15T09:51:50.760Z,58.26
2018-09-15T09:54:18.816Z,57.54
2018-09-15T09:56:46.880Z,56.48
2018-09-15T09:59:15.228Z,56.81
2018-09-15T10:01:48.699Z,55.93
2018-09-15T10:04:16.758Z,56.70
2018-09-15T10:06:44.808Z,56.28
2018-09-15T10:09:12.861Z,56.17
2018-09-15T10:11:41.896Z,55.81
2018-09-15T10:14:10.271Z,56.33
2018-09-15T10:16:38.582Z,56.54
2018-09-15T10:19:07.495Z,55.24
2018-09-15T10:21:35.604Z,55.19
2018-09-15T10:24:03.589Z,54.80
2018-09-15T10:26:31.645Z,55.34
2018-09-15T10:28:59.720Z,55.58
2018-09-15T10:31:27.802Z,55.10
2018-09-15T10:33:55.858Z,55.53
2018-09-15T10:36:23.944Z,55.46
2018-09-15T10:38:52.000Z,55.06
2018-09-15T10:41:20.048Z,56.18
2018-09-15T10:43:48.359Z,57.72
2018-09-15T10:46:16.423Z,58.18
2018-09-15T10:48:44.457Z,58.40
2018-09-15T10:51:12.533Z,58.54
2018-09-15T10:53:40.603Z,58.79
2018-09-15T10:56:08.665Z,58.25
2018-09-15T10:58:36.856Z,58.79
2018-09-15T11:01:04.921Z,58.68
2018-09-15T11:03:32.952Z,58.19
2018-09-15T11:06:01.896Z,58.50
2018-09-15T11:08:29.907Z,57.00
2018-09-15T11:10:57.968Z,57.54
2018-09-15T11:13:26.135Z,57.11
2018-09-15T11:15:54.673Z,56.78
2018-09-15T11:18:22.736Z,58.28
2018-09-15T11:20:50.801Z,60.23
2018-09-15T11:23:18.894Z,60.36
2018-09-15T11:25:47.016Z,61.74
2018-09-15T11:28:15.085Z,62.87
2018-09-15T11:30:43.154Z,64.15
2018-09-15T11:33:11.266Z,63.83
2018-09-15T11:35:39.297Z,64.29
2018-09-15T11:38:07.339Z,63.76
2018-09-15T11:40:35.391Z,64.94
2018-09-15T11:43:03.566Z,63.75
2018-09-15T11:45:31.604Z,64.34
2018-09-15T11:48:00.573Z,64.15
2018-09-15T11:50:28.741Z,63.96
2018-09-15T11:52:56.795Z,64.28
2018-09-15T11:55:24.840Z,62.86
2018-09-15T11:57:53.152Z,62.16
2018-09-15T12:00:24.322Z,61.88
2018-09-15T12:02:52.365Z,60.57
2018-09-15T12:05:20.400Z,60.34
2018-09-15T12:07:48.497Z,59.45
2018-09-15T12:10:16.539Z,59.54
2018-09-15T12:12:44.604Z,58.74
2018-09-15T12:15:12.648Z,57.22
2018-09-15T12:17:40.930Z,55.75
2018-09-15T12:20:09.069Z,55.72
2018-09-15T12:22:37.125Z,53.18
2018-09-15T12:25:05.169Z,52.87
2018-09-15T12:27:33.385Z,52.98
2018-09-15T12:30:01.415Z,52.98
2018-09-15T12:32:29.450Z,52.66
2018-09-15T12:34:57.501Z,54.00
2018-09-15T12:37:25.584Z,53.17
2018-09-15T12:39:53.724Z,52.89
2018-09-15T12:42:21.789Z,53.33
2018-09-15T12:44:50.029Z,52.76
2018-09-15T12:47:18.117Z,53.51
2018-09-15T12:49:46.160Z,52.95
2018-09-15T12:52:14.299Z,51.99
2018-09-15T12:54:42.502Z,51.74
2018-09-15T12:57:10.621Z,50.70
2018-09-15T12:59:38.709Z,51.17
2018-09-15T13:02:06.819Z,50.35
2018-09-15T13:04:35.194Z,47.25
2018-09-15T13:07:03.269Z,46.64
2018-09-15T13:09:31.299Z,47.51
2018-09-15T13:11:59.392Z,47.36
2018-09-15T13:14:27.448Z,47.21
2018-09-15T13:16:55.513Z,47.03
2018-09-15T13:19:23.602Z,46.86
2018-09-15T13:21:51.648Z,47.74
2018-09-15T13:24:19.698Z,48.03
2018-09-15T13:26:47.776Z,47.47
2018-09-15T13:29:15.815Z,45.86
2018-09-15T13:31:43.880Z,46.86
2018-09-15T13:34:11.914Z,47.54
2018-09-15T13:36:40.034Z,46.47
2018-09-15T13:39:09.380Z,46.84
2018-09-15T13:41:43.980Z,47.08
2018-09-15T13:44:12.012Z,47.27
2018-09-15T13:46:40.143Z,46.46
2018-09-15T13:49:08.255Z,46.01
2018-09-15T13:51:36.965Z,46.61
2018-09-15T13:54:05.073Z,47.13
2018-09-15T13:56:33.136Z,47.29
2018-09-15T13:59:01.573Z,47.22
2018-09-15T14:01:29.674Z,47.15
2018-09-15T14:03:57.710Z,47.63
2018-09-15T14:06:25.774Z,47.64
2018-09-15T14:08:53.808Z,47.62
2018-09-15T14:11:21.853Z,47.63
2018-09-15T14:13:49.892Z,47.80
2018-09-15T14:16:17.959Z,47.76
2018-09-15T14:18:46.005Z,47.48
2018-09-15T14:21:14.064Z,48.67
2018-09-15T14:23:42.124Z,49.17
2018-09-15T14:26:10.427Z,49.21
2018-09-15T14:28:38.466Z,48.82
2018-09-15T14:31:06.569Z,48.95
2018-09-15T14:33:34.637Z,48.70
2018-09-15T14:36:02.673Z,48.38
2018-09-15T14:38:30.733Z,48.69
2018-09-15T14:40:58.784Z,48.81
2018-09-15T14:43:26.833Z,50.05
2018-09-15T14:45:54.885Z,49.54
2018-09-15T14:48:22.946Z,50.31
2018-09-15T14:50:50.973Z,49.69
2018-09-15T14:55:53.339Z,49.92
2018-09-15T14:58:21.367Z,49.65
2018-09-15T15:00:49.425Z,48.89
2018-09-15T15:03:17.513Z,49.38
2018-09-15T15:05:45.685Z,49.22
2018-09-15T15:08:13.777Z,49.38
2018-09-15T15:10:41.843Z,49.82
2018-09-15T15:13:09.889Z,49.36
2018-09-15T15:15:37.965Z,49.88
2018-09-15T15:18:06.036Z,50.23
2018-09-15T15:20:34.445Z,50.37
2018-09-15T15:23:02.504Z,49.41
2018-09-15T15:25:30.662Z,50.33
2018-09-15T15:27:58.657Z,49.05
2018-09-15T15:30:26.932Z,50.02
2018-09-15T15:32:55.025Z,48.77
2018-09-15T15:35:23.088Z,49.07
2018-09-15T15:37:51.456Z,49.50
2018-09-15T15:40:19.510Z,49.21
2018-09-15T15:42:48.561Z,48.59
2018-09-15T15:45:16.662Z,49.67
2018-09-15T15:47:44.694Z,50.00
2018-09-15T15:50:12.736Z,49.97
2018-09-15T15:52:40.772Z,49.61
2018-09-15T15:55:08.828Z,49.90
2018-09-15T15:57:43.693Z,50.82
2018-09-15T16:00:11.753Z,50.49
2018-09-15T16:02:39.851Z,51.13
2018-09-15T16:05:25.504Z,50.49
2018-09-15T16:07:53.545Z,50.39
2018-09-15T16:10:21.614Z,51.07
2018-09-15T16:12:49.650Z,50.95
2018-09-15T16:15:17.714Z,51.30
2018-09-15T16:17:45.749Z,51.08
2018-09-15T16:20:13.795Z,50.18
2018-09-15T16:22:41.833Z,50.82
2018-09-15T16:25:09.869Z,50.77
2018-09-15T16:27:37.909Z,49.95
2018-09-15T16:30:06.475Z,49.98
2018-09-15T16:32:34.502Z,49.72
2018-09-15T16:35:02.533Z,50.66
2018-09-15T16:37:30.558Z,50.12
2018-09-15T16:39:58.857Z,50.73
2018-09-15T16:42:26.900Z,50.98
2018-09-15T16:44:54.929Z,50.26
2018-09-15T16:47:22.975Z,50.62
2018-09-15T16:49:51.022Z,50.76
2018-09-15T16:52:19.090Z,50.15
2018-09-15T16:54:47.134Z,50.86
2018-09-15T16:57:15.172Z,50.32
2018-09-15T16:59:43.318Z,50.98
2018-09-15T17:02:11.344Z,51.32
2018-09-15T17:04:39.396Z,50.99
2018-09-15T17:07:07.565Z,51.02
2018-09-15T17:09:35.641Z,50.49
2018-09-15T17:12:03.685Z,50.56
2018-09-15T17:14:31.738Z,50.70
2018-09-15T17:16:59.825Z,51.27
2018-09-15T17:19:27.884Z,51.35
2018-09-15T17:21:55.929Z,52.07
2018-09-15T17:24:23.967Z,51.59
2018-09-15T17:26:52.016Z,52.33
2018-09-15T17:29:20.089Z,52.84
2018-09-15T17:31:48.129Z,53.37
2018-09-15T17:34:16.176Z,54.07
2018-09-15T17:36:44.224Z,53.95
2018-09-15T17:39:13.824Z,54.33
2018-09-15T17:41:41.864Z,54.32
2018-09-15T17:44:09.944Z,55.17
2018-09-15T17:46:37.996Z,55.35
2018-09-15T17:49:06.063Z,55.85
2018-09-15T17:51:34.114Z,55.81
2018-09-15T17:54:02.164Z,55.47
2018-09-15T17:56:30.222Z,56.95
2018-09-15T17:58:58.261Z,56.95
2018-09-15T18:01:26.307Z,57.46
2018-09-15T18:03:54.340Z,57.25
2018-09-15T18:06:22.543Z,57.61
2018-09-15T18:08:50.836Z,57.30
2018-09-15T18:11:18.889Z,57.79
2018-09-15T18:13:46.928Z,58.12
2018-09-15T18:16:14.998Z,57.73
2018-09-15T18:18:43.085Z,58.21
2018-09-15T18:21:11.148Z,57.79
2018-09-15T18:23:39.190Z,58.22
2018-09-15T18:26:07.233Z,57.89
2018-09-15T18:28:35.283Z,57.99
2018-09-15T18:31:03.371Z,58.74
2018-09-15T18:33:31.365Z,59.20
2018-09-15T18:35:59.516Z,58.91
2018-09-15T18:38:27.500Z,58.28
2018-09-15T18:40:55.665Z,58.22
2018-09-15T18:43:23.738Z,58.22
2018-09-15T18:45:51.781Z,59.18
2018-09-15T18:48:19.821Z,58.67
2018-09-15T18:50:47.871Z,59.40
2018-09-15T18:53:15.913Z,59.00
2018-09-15T18:55:44.018Z,59.33
2018-09-15T18:58:12.077Z,59.47
2018-09-15T19:00:40.164Z,59.13
2018-09-15T19:03:12.424Z,59.59
2018-09-15T19:05:40.469Z,59.94
2018-09-15T19:08:08.543Z,60.77
2018-09-15T19:10:36.805Z,60.42
2018-09-15T19:13:04.848Z,60.77
2018-09-15T19:15:32.909Z,60.77
2018-09-15T19:18:00.948Z,60.28
2018-09-15T19:20:28.985Z,59.93
2018-09-15T19:22:57.021Z,60.47
2018-09-15T19:25:25.341Z,60.36
2018-09-15T19:27:53.432Z,60.61
2018-09-15T19:30:21.464Z,61.08
2018-09-15T19:32:49.565Z,61.86
2018-09-15T19:35:17.562Z,61.97
2018-09-15T19:37:45.579Z,62.00
2018-09-15T19:40:13.638Z,61.85
2018-09-15T19:42:41.733Z,61.54
2018-09-15T19:45:09.789Z,61.77
2018-09-15T19:47:37.833Z,62.85
2018-09-15T19:50:05.897Z,61.95
2018-09-15T19:52:34.007Z,62.34
2018-09-15T19:55:02.040Z,62.43
2018-09-15T19:57:30.082Z,62.59
2018-09-15T19:59:58.154Z,63.33
2018-09-15T20:02:26.241Z,62.60
2018-09-15T20:04:54.393Z,63.16
2018-09-15T20:07:22.411Z,63.42
2018-09-15T20:09:50.465Z,63.47
2018-09-15T20:12:18.517Z,63.44
2018-09-15T20:14:46.555Z,63.66
2018-09-15T20:17:13.619Z,63.26
2018-09-15T20:19:40.694Z,63.66
2018-09-15T20:22:08.740Z,64.27
2018-09-15T20:24:37.059Z,63.68
2018-09-15T20:27:05.061Z,64.75
2018-09-15T20:29:33.114Z,64.74
2018-09-15T20:32:01.489Z,64.81
2018-09-15T20:34:29.537Z,65.05
2018-09-15T20:36:57.576Z,64.38
2018-09-15T20:39:25.606Z,64.57
2018-09-15T20:41:53.652Z,65.14
2018-09-15T20:44:21.703Z,65.50
2018-09-15T20:46:49.744Z,65.27
2018-09-15T20:49:17.823Z,65.66
2018-09-15T20:51:45.879Z,65.66
2018-09-15T20:54:13.952Z,65.29
2018-09-15T20:56:42.079Z,65.49
2018-09-15T20:59:10.114Z,65.17
2018-09-15T21:01:38.326Z,65.80
2018-09-15T21:04:06.505Z,65.76
2018-09-15T21:06:34.586Z,65.63
2018-09-15T21:09:02.662Z,65.86
2018-09-15T21:11:30.705Z,65.80
2018-09-15T21:13:58.762Z,65.78
2018-09-15T21:16:26.797Z,65.34
2018-09-15T21:18:54.845Z,65.44
2018-09-15T21:21:22.883Z,65.23
2018-09-15T21:23:50.921Z,65.73
2018-09-15T21:26:18.988Z,65.82
2018-09-15T21:28:47.027Z,66.39
2018-09-15T21:31:15.066Z,65.99
2018-09-15T21:33:43.190Z,66.71
2018-09-15T21:36:11.248Z,66.09
2018-09-15T21:38:39.320Z,66.07
2018-09-15T21:41:07.401Z,66.82
2018-09-15T21:43:35.453Z,66.94
2018-09-15T21:46:03.586Z,66.55
2018-09-15T21:48:31.613Z,66.89
2018-09-15T21:50:59.672Z,67.25
2018-09-15T21:53:27.763Z,67.58
2018-09-15T21:55:55.746Z,67.83
2018-09-15T21:58:23.788Z,67.53
2018-09-15T22:00:56.011Z,67.27
2018-09-15T22:03:24.064Z,67.52
2018-09-15T22:05:52.233Z,67.89
2018-09-15T22:08:20.641Z,67.66
2018-09-15T22:10:48.984Z,67.91
2018-09-15T22:13:17.278Z,67.49
2018-09-15T22:15:45.319Z,67.53
2018-09-15T22:18:13.364Z,67.65
2018-09-15T22:20:41.464Z,68.23
2018-09-15T22:23:09.508Z,68.06
2018-09-15T22:25:37.549Z,67.81
2018-09-15T22:28:05.753Z,67.94
2018-09-15T22:30:33.816Z,67.51
2018-09-15T22:33:01.849Z,67.14
2018-09-15T22:35:29.890Z,67.53
2018-09-15T22:37:57.927Z,67.82
2018-09-15T22:40:25.973Z,68.33
2018-09-15T22:42:54.017Z,67.80
2018-09-15T22:45:22.048Z,68.69
2018-09-15T22:47:50.094Z,68.29
2018-09-15T22:50:18.149Z,68.46
2018-09-15T22:52:46.196Z,68.61
2018-09-15T22:55:14.243Z,68.47
2018-09-15T22:57:42.378Z,68.34
2018-09-15T23:00:10.417Z,67.89
2018-09-15T23:02:38.450Z,68.57
2018-09-15T23:05:06.575Z,68.00
2018-09-15T23:07:34.662Z,68.30
2018-09-15T23:10:02.734Z,68.42
2018-09-15T23:12:31.028Z,68.28
2018-09-15T23:14:59.086Z,68.98
2018-09-15T23:17:27.131Z,69.00
2018-09-15T23:19:55.172Z,69.29
2018-09-15T23:22:23.208Z,68.89
2018-09-15T23:24:51.296Z,69.46
2018-09-15T23:27:19.364Z,69.46
2018-09-15T23:29:47.681Z,69.40
2018-09-15T23:32:15.724Z,69.59
2018-09-15T23:34:43.820Z,69.50
2018-09-15T23:37:11.856Z,68.68
2018-09-15T23:39:41.944Z,68.29
2018-09-15T23:42:09.984Z,69.09
2018-09-15T23:44:38.049Z,69.16
2018-09-15T23:47:06.115Z,68.56
2018-09-15T23:49:34.192Z,68.53
2018-09-15T23:52:02.260Z,69.30
2018-09-15T23:54:30.301Z,68.73
2018-09-15T23:56:58.538Z,68.55
2018-09-15T23:59:26.557Z,68.64
